sensor_id;sensor_type;location;lat;lon;timestamp;pressure;altitude;pressure_sealevel;temperature;humidity
52625;BME280;38519;52.540;13.410;2022-12-18T00:00:59;102529.03;;;-5.62;100.00
52625;BME280;38519;52.540;13.410;2022-12-18T00:03:24;102537.97;;;-5.70;100.00
52625;BME280;38519;52.540;13.410;2022-12-18T00:05:50;102535.84;;;-5.57;100.00
52625;BME280;38519;52.540;13.410;2022-12-18T00:08:16;102541.00;;;-5.51;100.00
52625;BME280;38519;52.540;13.410;2022-12-18T00:10:42;102539.56;;;-5.55;100.00
52625;BME280;38519;52.540;13.410;2022-12-18T00:13:08;102539.47;;;-5.60;100.00
52625;BME280;38519;52.540;13.410;2022-12-18T00:15:34;102549.28;;;-5.52;100.00
52625;BME280;38519;52.540;13.410;2022-12-18T00:17:59;102546.44;;;-5.59;100.00
52625;BME280;38519;52.540;13.410;2022-12-18T00:20:25;102546.44;;;-5.44;100.00
52625;BME280;38519;52.540;13.410;2022-12-18T00:22:51;102544.81;;;-5.59;100.00
52625;BME280;38519;52.540;13.410;2022-12-18T00:25:16;102537.69;;;-5.56;100.00
52625;BME280;38519;52.540;13.410;2022-12-18T00:27:42;102540.38;;;-5.91;100.00
52625;BME280;38519;52.540;13.410;2022-12-18T00:30:07;102537.34;;;-5.78;100.00
52625;BME280;38519;52.540;13.410;2022-12-18T00:32:33;102543.44;;;-5.88;100.00
52625;BME280;38519;52.540;13.410;2022-12-18T00:34:58;102539.41;;;-5.66;100.00
52625;BME280;38519;52.540;13.410;2022-12-18T00:37:23;102539.72;;;-5.59;100.00
52625;BME280;38519;52.540;13.410;2022-12-18T00:39:49;102536.25;;;-5.59;100.00
52625;BME280;38519;52.540;13.410;2022-12-18T00:42:16;102535.75;;;-5.62;100.00
52625;BME280;38519;52.540;13.410;2022-12-18T00:45:00;102538.13;;;-5.74;100.00
52625;BME280;38519;52.540;13.410;2022-12-18T00:47:25;102525.63;;;-5.88;100.00
52625;BME280;38519;52.540;13.410;2022-12-18T00:49:50;102527.53;;;-6.02;100.00
52625;BME280;38519;52.540;13.410;2022-12-18T00:52:16;102531.69;;;-6.02;100.00
52625;BME280;38519;52.540;13.410;2022-12-18T00:54:41;102526.75;;;-6.22;100.00
52625;BME280;38519;52.540;13.410;2022-12-18T00:57:07;102526.81;;;-6.32;100.00
52625;BME280;38519;52.540;13.410;2022-12-18T00:59:32;102531.41;;;-6.35;100.00
52625;BME280;38519;52.540;13.410;2022-12-18T01:01:57;102534.78;;;-6.40;100.00
52625;BME280;38519;52.540;13.410;2022-12-18T01:04:23;102530.81;;;-6.53;100.00
52625;BME280;38519;52.540;13.410;2022-12-18T01:06:48;102528.13;;;-6.49;100.00
52625;BME280;38519;52.540;13.410;2022-12-18T01:09:13;102527.34;;;-6.29;100.00
52625;BME280;38519;52.540;13.410;2022-12-18T01:11:39;102529.44;;;-6.26;100.00
52625;BME280;38519;52.540;13.410;2022-12-18T01:14:04;102538.25;;;-6.39;100.00
52625;BME280;38519;52.540;13.410;2022-12-18T01:16:30;102542.94;;;-6.37;100.00
52625;BME280;38519;52.540;13.410;2022-12-18T01:18:55;102542.13;;;-6.42;100.00
52625;BME280;38519;52.540;13.410;2022-12-18T01:21:21;102552.41;;;-6.36;100.00
52625;BME280;38519;52.540;13.410;2022-12-18T01:23:50;102556.03;;;-6.14;100.00
52625;BME280;38519;52.540;13.410;2022-12-18T01:26:16;102554.41;;;-6.14;100.00
52625;BME280;38519;52.540;13.410;2022-12-18T01:28:42;102565.09;;;-6.36;100.00
52625;BME280;38519;52.540;13.410;2022-12-18T01:31:30;102570.19;;;-6.36;100.00
52625;BME280;38519;52.540;13.410;2022-12-18T01:33:54;102564.53;;;-6.29;100.00
52625;BME280;38519;52.540;13.410;2022-12-18T01:36:21;102560.28;;;-6.34;100.00
52625;BME280;38519;52.540;13.410;2022-12-18T01:38:47;102561.78;;;-6.41;100.00
52625;BME280;38519;52.540;13.410;2022-12-18T01:41:14;102565.81;;;-6.37;100.00
52625;BME280;38519;52.540;13.410;2022-12-18T01:43:44;102565.63;;;-6.33;100.00
52625;BME280;38519;52.540;13.410;2022-12-18T01:46:10;102564.50;;;-6.45;100.00
52625;BME280;38519;52.540;13.410;2022-12-18T01:48:44;102573.94;;;-6.59;100.00
52625;BME280;38519;52.540;13.410;2022-12-18T01:51:10;102570.97;;;-6.56;100.00
52625;BME280;38519;52.540;13.410;2022-12-18T01:53:37;102570.03;;;-6.57;100.00
52625;BME280;38519;52.540;13.410;2022-12-18T01:56:04;102570.97;;;-6.56;100.00
52625;BME280;38519;52.540;13.410;2022-12-18T01:58:35;102571.53;;;-6.63;100.00
52625;BME280;38519;52.540;13.410;2022-12-18T02:01:02;102575.56;;;-6.60;100.00
52625;BME280;38519;52.540;13.410;2022-12-18T02:03:28;102575.63;;;-6.54;100.00
52625;BME280;38519;52.540;13.410;2022-12-18T02:18:38;102583.53;;;-6.52;100.00
52625;BME280;38519;52.540;13.410;2022-12-18T02:28:31;102584.13;;;-6.18;100.00
52625;BME280;38519;52.540;13.410;2022-12-18T02:30:57;102583.47;;;-6.17;100.00
52625;BME280;38519;52.540;13.410;2022-12-18T02:33:25;102588.16;;;-6.40;100.00
52625;BME280;38519;52.540;13.410;2022-12-18T02:35:52;102597.47;;;-6.35;100.00
52625;BME280;38519;52.540;13.410;2022-12-18T02:38:19;102595.81;;;-6.25;100.00
52625;BME280;38519;52.540;13.410;2022-12-18T02:40:44;102599.72;;;-6.27;100.00
52625;BME280;38519;52.540;13.410;2022-12-18T02:43:12;102598.00;;;-6.32;100.00
52625;BME280;38519;52.540;13.410;2022-12-18T02:45:48;102603.94;;;-6.37;100.00
52625;BME280;38519;52.540;13.410;2022-12-18T02:48:15;102595.59;;;-6.36;100.00
52625;BME280;38519;52.540;13.410;2022-12-18T02:56:07;102614.91;;;-6.42;100.00
52625;BME280;38519;52.540;13.410;2022-12-18T02:58:43;102606.81;;;-6.30;100.00
52625;BME280;38519;52.540;13.410;2022-12-18T03:04:08;102597.28;;;-6.46;100.00
52625;BME280;38519;52.540;13.410;2022-12-18T03:06:42;102597.72;;;-6.59;100.00
52625;BME280;38519;52.540;13.410;2022-12-18T03:09:16;102606.31;;;-6.58;100.00
52625;BME280;38519;52.540;13.410;2022-12-18T03:11:44;102612.41;;;-6.52;100.00
52625;BME280;38519;52.540;13.410;2022-12-18T03:14:30;102602.94;;;-6.53;100.00
52625;BME280;38519;52.540;13.410;2022-12-18T03:16:58;102606.34;;;-6.78;100.00
52625;BME280;38519;52.540;13.410;2022-12-18T03:19:26;102607.47;;;-6.91;100.00
52625;BME280;38519;52.540;13.410;2022-12-18T03:21:53;102604.38;;;-6.84;100.00
52625;BME280;38519;52.540;13.410;2022-12-18T03:24:20;102594.47;;;-6.83;100.00
52625;BME280;38519;52.540;13.410;2022-12-18T03:26:48;102604.41;;;-6.94;100.00
52625;BME280;38519;52.540;13.410;2022-12-18T03:31:45;102605.84;;;-6.90;100.00
52625;BME280;38519;52.540;13.410;2022-12-18T03:34:14;102608.94;;;-6.87;100.00
52625;BME280;38519;52.540;13.410;2022-12-18T03:36:40;102605.88;;;-7.00;100.00
52625;BME280;38519;52.540;13.410;2022-12-18T03:39:06;102605.78;;;-7.06;100.00
52625;BME280;38519;52.540;13.410;2022-12-18T03:41:32;102603.91;;;-7.07;100.00
52625;BME280;38519;52.540;13.410;2022-12-18T03:46:26;102605.94;;;-7.20;100.00
52625;BME280;38519;52.540;13.410;2022-12-18T03:49:01;102602.50;;;-7.30;100.00
52625;BME280;38519;52.540;13.410;2022-12-18T03:51:49;102613.16;;;-7.17;100.00
52625;BME280;38519;52.540;13.410;2022-12-18T03:54:17;102613.53;;;-7.10;100.00
52625;BME280;38519;52.540;13.410;2022-12-18T03:56:44;102619.13;;;-6.97;100.00
52625;BME280;38519;52.540;13.410;2022-12-18T03:59:12;102617.25;;;-7.08;100.00
52625;BME280;38519;52.540;13.410;2022-12-18T04:01:40;102617.28;;;-7.27;100.00
52625;BME280;38519;52.540;13.410;2022-12-18T04:04:08;102610.91;;;-7.25;100.00
52625;BME280;38519;52.540;13.410;2022-12-18T04:06:35;102614.63;;;-7.23;100.00
52625;BME280;38519;52.540;13.410;2022-12-18T04:09:01;102607.38;;;-7.16;100.00
52625;BME280;38519;52.540;13.410;2022-12-18T04:11:28;102607.38;;;-7.16;100.00
52625;BME280;38519;52.540;13.410;2022-12-18T04:13:57;102613.84;;;-7.28;100.00
52625;BME280;38519;52.540;13.410;2022-12-18T04:16:23;102620.78;;;-7.27;100.00
52625;BME280;38519;52.540;13.410;2022-12-18T04:18:49;102618.91;;;-7.38;100.00
52625;BME280;38519;52.540;13.410;2022-12-18T04:21:14;102626.38;;;-7.34;100.00
52625;BME280;38519;52.540;13.410;2022-12-18T04:23:40;102631.06;;;-7.21;100.00
52625;BME280;38519;52.540;13.410;2022-12-18T04:26:05;102641.34;;;-7.16;100.00
52625;BME280;38519;52.540;13.410;2022-12-18T04:28:31;102636.00;;;-7.17;100.00
52625;BME280;38519;52.540;13.410;2022-12-18T04:30:56;102626.78;;;-7.26;100.00
52625;BME280;38519;52.540;13.410;2022-12-18T04:33:21;102619.31;;;-7.40;100.00
52625;BME280;38519;52.540;13.410;2022-12-18T04:35:47;102630.16;;;-7.32;100.00
52625;BME280;38519;52.540;13.410;2022-12-18T04:38:12;102626.38;;;-7.43;100.00
52625;BME280;38519;52.540;13.410;2022-12-18T04:40:38;102635.50;;;-7.40;100.00
52625;BME280;38519;52.540;13.410;2022-12-18T04:43:04;102636.78;;;-7.32;100.00
52625;BME280;38519;52.540;13.410;2022-12-18T04:45:30;102635.06;;;-7.27;100.00
52625;BME280;38519;52.540;13.410;2022-12-18T04:47:57;102630.41;;;-7.20;100.00
52625;BME280;38519;52.540;13.410;2022-12-18T04:50:22;102632.66;;;-7.22;100.00
52625;BME280;38519;52.540;13.410;2022-12-18T04:52:48;102624.38;;;-7.30;100.00
52625;BME280;38519;52.540;13.410;2022-12-18T04:55:15;102627.06;;;-7.25;100.00
52625;BME280;38519;52.540;13.410;2022-12-18T04:57:40;102629.59;;;-7.15;100.00
52625;BME280;38519;52.540;13.410;2022-12-18T05:00:06;102631.59;;;-7.28;100.00
52625;BME280;38519;52.540;13.410;2022-12-18T05:02:32;102629.97;;;-7.27;100.00
52625;BME280;38519;52.540;13.410;2022-12-18T05:04:57;102637.47;;;-7.14;100.00
52625;BME280;38519;52.540;13.410;2022-12-18T05:07:23;102646.81;;;-7.08;100.00
52625;BME280;38519;52.540;13.410;2022-12-18T05:09:48;102645.75;;;-7.24;100.00
52625;BME280;38519;52.540;13.410;2022-12-18T05:12:14;102644.94;;;-7.29;100.00
52625;BME280;38519;52.540;13.410;2022-12-18T05:14:39;102646.44;;;-7.25;100.00
52625;BME280;38519;52.540;13.410;2022-12-18T05:17:04;102650.19;;;-7.33;100.00
52625;BME280;38519;52.540;13.410;2022-12-18T05:19:30;102657.50;;;-7.15;100.00
52625;BME280;38519;52.540;13.410;2022-12-18T05:21:55;102666.44;;;-6.98;100.00
52625;BME280;38519;52.540;13.410;2022-12-18T05:24:22;102670.69;;;-6.92;100.00
52625;BME280;38519;52.540;13.410;2022-12-18T05:26:47;102673.22;;;-6.83;100.00
52625;BME280;38519;52.540;13.410;2022-12-18T05:29:12;102682.19;;;-6.85;100.00
52625;BME280;38519;52.540;13.410;2022-12-18T05:31:38;102684.63;;;-7.10;100.00
52625;BME280;38519;52.540;13.410;2022-12-18T05:34:03;102679.16;;;-7.17;100.00
52625;BME280;38519;52.540;13.410;2022-12-18T05:36:38;102680.22;;;-7.30;100.00
52625;BME280;38519;52.540;13.410;2022-12-18T05:39:06;102678.38;;;-7.32;100.00
52625;BME280;38519;52.540;13.410;2022-12-18T05:41:32;102681.81;;;-7.31;100.00
52625;BME280;38519;52.540;13.410;2022-12-18T05:43:58;102677.28;;;-7.18;100.00
52625;BME280;38519;52.540;13.410;2022-12-18T05:46:24;102676.22;;;-7.24;100.00
52625;BME280;38519;52.540;13.410;2022-12-18T05:48:49;102676.75;;;-7.21;100.00
52625;BME280;38519;52.540;13.410;2022-12-18T05:51:16;102684.22;;;-7.37;100.00
52625;BME280;38519;52.540;13.410;2022-12-18T05:53:43;102690.38;;;-7.30;100.00
52625;BME280;38519;52.540;13.410;2022-12-18T05:56:13;102679.81;;;-7.28;100.00
52625;BME280;38519;52.540;13.410;2022-12-18T05:58:40;102686.88;;;-7.11;100.00
52625;BME280;38519;52.540;13.410;2022-12-18T06:01:10;102683.41;;;-7.02;100.00
52625;BME280;38519;52.540;13.410;2022-12-18T06:03:37;102684.88;;;-7.08;100.00
52625;BME280;38519;52.540;13.410;2022-12-18T06:06:03;102686.06;;;-6.97;100.00
52625;BME280;38519;52.540;13.410;2022-12-18T06:08:29;102700.09;;;-6.99;100.00
52625;BME280;38519;52.540;13.410;2022-12-18T06:10:55;102705.47;;;-6.97;100.00
52625;BME280;38519;52.540;13.410;2022-12-18T06:13:20;102703.47;;;-7.04;100.00
52625;BME280;38519;52.540;13.410;2022-12-18T06:15:46;102703.31;;;-6.90;100.00
52625;BME280;38519;52.540;13.410;2022-12-18T06:18:12;102701.56;;;-6.95;100.00
52625;BME280;38519;52.540;13.410;2022-12-18T06:20:38;102702.56;;;-7.14;100.00
52625;BME280;38519;52.540;13.410;2022-12-18T06:23:06;102704.66;;;-7.02;100.00
52625;BME280;38519;52.540;13.410;2022-12-18T06:25:33;102711.47;;;-6.97;100.00
52625;BME280;38519;52.540;13.410;2022-12-18T06:27:58;102713.75;;;-6.88;100.00
52625;BME280;38519;52.540;13.410;2022-12-18T06:30:24;102709.72;;;-6.72;100.00
52625;BME280;38519;52.540;13.410;2022-12-18T06:32:49;102712.94;;;-6.83;100.00
52625;BME280;38519;52.540;13.410;2022-12-18T06:35:15;102717.47;;;-6.77;100.00
52625;BME280;38519;52.540;13.410;2022-12-18T06:37:40;102728.28;;;-6.78;100.00
52625;BME280;38519;52.540;13.410;2022-12-18T06:40:06;102734.16;;;-6.73;100.00
52625;BME280;38519;52.540;13.410;2022-12-18T06:42:32;102738.19;;;-6.79;100.00
52625;BME280;38519;52.540;13.410;2022-12-18T06:44:58;102749.97;;;-7.09;100.00
52625;BME280;38519;52.540;13.410;2022-12-18T06:47:23;102747.44;;;-7.09;100.00
52625;BME280;38519;52.540;13.410;2022-12-18T06:49:48;102739.00;;;-7.14;100.00
52625;BME280;38519;52.540;13.410;2022-12-18T06:52:16;102737.94;;;-7.10;100.00
52625;BME280;38519;52.540;13.410;2022-12-18T06:54:42;102749.56;;;-7.16;100.00
52625;BME280;38519;52.540;13.410;2022-12-18T06:57:08;102756.63;;;-7.09;100.00
52625;BME280;38519;52.540;13.410;2022-12-18T06:59:33;102768.13;;;-7.02;100.00
52625;BME280;38519;52.540;13.410;2022-12-18T07:01:58;102764.56;;;-6.88;100.00
52625;BME280;38519;52.540;13.410;2022-12-18T07:04:28;102769.09;;;-6.82;100.00
52625;BME280;38519;52.540;13.410;2022-12-18T07:06:53;102753.03;;;-6.86;100.00
52625;BME280;38519;52.540;13.410;2022-12-18T07:09:19;102741.69;;;-6.88;100.00
52625;BME280;38519;52.540;13.410;2022-12-18T07:11:44;102741.44;;;-7.00;100.00
52625;BME280;38519;52.540;13.410;2022-12-18T07:14:10;102746.78;;;-6.98;100.00
52625;BME280;38519;52.540;13.410;2022-12-18T07:16:35;102748.09;;;-7.00;100.00
52625;BME280;38519;52.540;13.410;2022-12-18T07:19:00;102749.16;;;-6.94;100.00
52625;BME280;38519;52.540;13.410;2022-12-18T07:21:26;102751.44;;;-6.96;100.00
52625;BME280;38519;52.540;13.410;2022-12-18T07:23:51;102753.84;;;-6.91;100.00
52625;BME280;38519;52.540;13.410;2022-12-18T07:26:18;102761.88;;;-7.04;100.00
52625;BME280;38519;52.540;13.410;2022-12-18T07:28:44;102758.66;;;-7.03;100.00
52625;BME280;38519;52.540;13.410;2022-12-18T07:31:11;102755.84;;;-6.94;100.00
52625;BME280;38519;52.540;13.410;2022-12-18T07:33:37;102764.41;;;-6.94;100.00
52625;BME280;38519;52.540;13.410;2022-12-18T07:36:03;102757.97;;;-7.02;100.00
52625;BME280;38519;52.540;13.410;2022-12-18T07:38:29;102758.78;;;-7.07;100.00
52625;BME280;38519;52.540;13.410;2022-12-18T07:41:05;102766.69;;;-6.96;100.00
52625;BME280;38519;52.540;13.410;2022-12-18T07:43:32;102759.06;;;-7.25;100.00
52625;BME280;38519;52.540;13.410;2022-12-18T07:45:58;102761.47;;;-7.11;100.00
52625;BME280;38519;52.540;13.410;2022-12-18T07:48:23;102760.25;;;-7.13;100.00
52625;BME280;38519;52.540;13.410;2022-12-18T07:50:49;102758.25;;;-7.00;100.00
52625;BME280;38519;52.540;13.410;2022-12-18T07:53:14;102759.72;;;-6.97;100.00
52625;BME280;38519;52.540;13.410;2022-12-18T07:55:40;102750.22;;;-6.88;100.00
52625;BME280;38519;52.540;13.410;2022-12-18T07:58:06;102752.34;;;-6.95;100.00
52625;BME280;38519;52.540;13.410;2022-12-18T08:00:32;102755.44;;;-7.11;100.00
52625;BME280;38519;52.540;13.410;2022-12-18T08:02:57;102755.97;;;-7.08;100.00
52625;BME280;38519;52.540;13.410;2022-12-18T08:05:23;102760.25;;;-7.03;100.00
52625;BME280;38519;52.540;13.410;2022-12-18T08:07:48;102766.41;;;-7.17;100.00
52625;BME280;38519;52.540;13.410;2022-12-18T08:10:14;102771.75;;;-7.25;100.00
52625;BME280;38519;52.540;13.410;2022-12-18T08:12:39;102769.59;;;-7.27;100.00
52625;BME280;38519;52.540;13.410;2022-12-18T08:15:05;102770.03;;;-7.10;100.00
52625;BME280;38519;52.540;13.410;2022-12-18T08:17:31;102763.59;;;-7.08;100.00
52625;BME280;38519;52.540;13.410;2022-12-18T08:19:56;102763.84;;;-6.87;100.00
52625;BME280;38519;52.540;13.410;2022-12-18T08:22:21;102770.03;;;-6.91;100.00
52625;BME280;38519;52.540;13.410;2022-12-18T08:24:47;102780.97;;;-6.77;100.00
52625;BME280;38519;52.540;13.410;2022-12-18T08:27:12;102773.34;;;-6.67;100.00
52625;BME280;38519;52.540;13.410;2022-12-18T08:29:39;102774.28;;;-6.86;100.00
52625;BME280;38519;52.540;13.410;2022-12-18T08:32:04;102785.66;;;-6.93;100.00
52625;BME280;38519;52.540;13.410;2022-12-18T08:34:30;102783.78;;;-6.94;100.00
52625;BME280;38519;52.540;13.410;2022-12-18T08:36:55;102784.34;;;-6.91;100.00
52625;BME280;38519;52.540;13.410;2022-12-18T08:39:20;102782.59;;;-6.77;100.00
52625;BME280;38519;52.540;13.410;2022-12-18T08:41:46;102781.66;;;-6.58;100.00
52625;BME280;38519;52.540;13.410;2022-12-18T08:44:31;102789.41;;;-6.91;100.00
52625;BME280;38519;52.540;13.410;2022-12-18T08:47:04;102797.41;;;-6.74;100.00
52625;BME280;38519;52.540;13.410;2022-12-18T08:49:30;102798.88;;;-6.81;100.00
52625;BME280;38519;52.540;13.410;2022-12-18T08:51:55;102801.97;;;-6.87;100.00
52625;BME280;38519;52.540;13.410;2022-12-18T08:54:22;102804.78;;;-6.86;100.00
52625;BME280;38519;52.540;13.410;2022-12-18T08:56:47;102809.84;;;-6.86;100.00
52625;BME280;38519;52.540;13.410;2022-12-18T08:59:16;102807.03;;;-6.78;100.00
52625;BME280;38519;52.540;13.410;2022-12-18T09:01:42;102813.19;;;-6.81;100.00
52625;BME280;38519;52.540;13.410;2022-12-18T09:04:08;102814.16;;;-6.61;100.00
52625;BME280;38519;52.540;13.410;2022-12-18T09:06:34;102810.63;;;-6.62;100.00
52625;BME280;38519;52.540;13.410;2022-12-18T09:08:59;102813.44;;;-6.60;100.00
52625;BME280;38519;52.540;13.410;2022-12-18T09:11:27;102821.63;;;-6.57;100.00
52625;BME280;38519;52.540;13.410;2022-12-18T09:13:53;102821.50;;;-6.72;100.00
52625;BME280;38519;52.540;13.410;2022-12-18T09:16:19;102824.31;;;-6.61;100.00
52625;BME280;38519;52.540;13.410;2022-12-18T09:18:45;102836.75;;;-6.53;100.00
52625;BME280;38519;52.540;13.410;2022-12-18T09:21:14;102828.16;;;-6.53;100.00
52625;BME280;38519;52.540;13.410;2022-12-18T09:23:40;102826.31;;;-6.54;100.00
52625;BME280;38519;52.540;13.410;2022-12-18T09:26:06;102816.13;;;-6.45;100.00
52625;BME280;38519;52.540;13.410;2022-12-18T09:28:31;102829.72;;;-6.25;100.00
52625;BME280;38519;52.540;13.410;2022-12-18T09:30:57;102822.88;;;-6.20;100.00
52625;BME280;38519;52.540;13.410;2022-12-18T09:33:22;102826.88;;;-6.16;100.00
52625;BME280;38519;52.540;13.410;2022-12-18T09:35:47;102826.25;;;-5.90;100.00
52625;BME280;38519;52.540;13.410;2022-12-18T09:38:15;102827.59;;;-6.17;100.00
52625;BME280;38519;52.540;13.410;2022-12-18T09:40:45;102825.13;;;-6.12;100.00
52625;BME280;38519;52.540;13.410;2022-12-18T09:43:20;102820.22;;;-5.91;100.00
52625;BME280;38519;52.540;13.410;2022-12-18T09:45:49;102808.72;;;-5.89;100.00
52625;BME280;38519;52.540;13.410;2022-12-18T09:48:22;102806.75;;;-5.95;100.00
52625;BME280;38519;52.540;13.410;2022-12-18T09:50:48;102800.25;;;-5.83;100.00
52625;BME280;38519;52.540;13.410;2022-12-18T09:53:16;102805.28;;;-5.99;100.00
52625;BME280;38519;52.540;13.410;2022-12-18T09:55:45;102802.56;;;-5.95;100.00
52625;BME280;38519;52.540;13.410;2022-12-18T10:00:51;102788.50;;;-5.93;100.00
52625;BME280;38519;52.540;13.410;2022-12-18T10:03:16;102773.97;;;-6.04;100.00
52625;BME280;38519;52.540;13.410;2022-12-18T10:05:48;102764.41;;;-5.95;100.00
52625;BME280;38519;52.540;13.410;2022-12-18T10:10:51;102750.47;;;-5.87;100.00
52625;BME280;38519;52.540;13.410;2022-12-18T10:21:15;102755.38;;;-5.83;100.00
52625;BME280;38519;52.540;13.410;2022-12-18T10:26:14;102762.78;;;-5.59;100.00
52625;BME280;38519;52.540;13.410;2022-12-18T10:28:40;102755.78;;;-5.60;100.00
52625;BME280;38519;52.540;13.410;2022-12-18T10:31:07;102760.03;;;-5.71;100.00
52625;BME280;38519;52.540;13.410;2022-12-18T10:33:37;102759.19;;;-5.65;100.00
52625;BME280;38519;52.540;13.410;2022-12-18T10:36:03;102758.81;;;-5.47;100.00
52625;BME280;38519;52.540;13.410;2022-12-18T10:38:30;102750.25;;;-5.48;100.00
52625;BME280;38519;52.540;13.410;2022-12-18T10:41:00;102741.88;;;-5.37;100.00
52625;BME280;38519;52.540;13.410;2022-12-18T10:43:33;102742.06;;;-5.10;100.00
52625;BME280;38519;52.540;13.410;2022-12-18T10:46:00;102735.09;;;-4.96;100.00
52625;BME280;38519;52.540;13.410;2022-12-18T10:48:26;102740.63;;;-5.14;100.00
52625;BME280;38519;52.540;13.410;2022-12-18T10:50:52;102736.03;;;-5.11;100.00
52625;BME280;38519;52.540;13.410;2022-12-18T10:53:27;102729.00;;;-5.02;100.00
52625;BME280;38519;52.540;13.410;2022-12-18T10:55:54;102723.16;;;-5.07;100.00
52625;BME280;38519;52.540;13.410;2022-12-18T11:06:02;102708.00;;;-5.11;100.00
52625;BME280;38519;52.540;13.410;2022-12-18T11:08:28;102705.38;;;-5.01;100.00
52625;BME280;38519;52.540;13.410;2022-12-18T11:10:53;102713.38;;;-5.09;100.00
52625;BME280;38519;52.540;13.410;2022-12-18T11:13:20;102715.84;;;-5.15;100.00
52625;BME280;38519;52.540;13.410;2022-12-18T11:15:46;102714.13;;;-5.20;100.00
52625;BME280;38519;52.540;13.410;2022-12-18T11:21:10;102710.56;;;-5.26;100.00
52625;BME280;38519;52.540;13.410;2022-12-18T11:23:37;102714.72;;;-5.27;100.00
52625;BME280;38519;52.540;13.410;2022-12-18T11:26:10;102721.31;;;-5.33;100.00
52625;BME280;38519;52.540;13.410;2022-12-18T11:28:36;102715.66;;;-5.26;100.00
52625;BME280;38519;52.540;13.410;2022-12-18T11:31:24;102708.94;;;-5.10;100.00
52625;BME280;38519;52.540;13.410;2022-12-18T11:33:56;102714.03;;;-4.95;100.00
52625;BME280;38519;52.540;13.410;2022-12-18T11:36:23;102714.44;;;-4.98;100.00
52625;BME280;38519;52.540;13.410;2022-12-18T11:38:49;102715.41;;;-5.28;100.00
52625;BME280;38519;52.540;13.410;2022-12-18T11:44:28;102707.25;;;-5.16;100.00
52625;BME280;38519;52.540;13.410;2022-12-18T11:47:57;102719.13;;;-5.10;100.00
52625;BME280;38519;52.540;13.410;2022-12-18T11:49:51;102724.22;;;-5.10;100.00
52625;BME280;38519;52.540;13.410;2022-12-18T11:52:21;102724.47;;;-5.09;100.00
52625;BME280;38519;52.540;13.410;2022-12-18T11:54:52;102730.97;;;-4.96;100.00
52625;BME280;38519;52.540;13.410;2022-12-18T12:05:02;102746.91;;;-4.97;100.00
52625;BME280;38519;52.540;13.410;2022-12-18T12:47:45;102765.41;;;-4.98;100.00
52625;BME280;38519;52.540;13.410;2022-12-18T12:50:15;102770.50;;;-4.98;100.00
52625;BME280;38519;52.540;13.410;2022-12-18T12:52:46;102753.63;;;-4.97;100.00
52625;BME280;38519;52.540;13.410;2022-12-18T12:55:16;102742.06;;;-4.95;100.00
52625;BME280;38519;52.540;13.410;2022-12-18T12:57:47;102736.06;;;-4.96;100.00
52625;BME280;38519;52.540;13.410;2022-12-18T13:00:16;102722.81;;;-4.99;100.00
52625;BME280;38519;52.540;13.410;2022-12-18T13:13:06;102700.84;;;-4.77;100.00
52625;BME280;38519;52.540;13.410;2022-12-18T13:15:43;102712.06;;;-4.86;100.00
52625;BME280;38519;52.540;13.410;2022-12-18T13:20:35;102717.16;;;-4.86;100.00
52625;BME280;38519;52.540;13.410;2022-12-18T13:23:01;102720.56;;;-4.91;100.00
52625;BME280;38519;52.540;13.410;2022-12-18T13:25:44;102721.84;;;-4.84;100.00
52625;BME280;38519;52.540;13.410;2022-12-18T13:28:14;102723.03;;;-4.82;100.00
52625;BME280;38519;52.540;13.410;2022-12-18T13:30:47;102714.28;;;-4.78;100.00
52625;BME280;38519;52.540;13.410;2022-12-18T13:38:33;102710.78;;;-4.63;100.00
52625;BME280;38519;52.540;13.410;2022-12-18T13:43:44;102709.50;;;-4.71;100.00
52625;BME280;38519;52.540;13.410;2022-12-18T13:46:29;102711.41;;;-4.70;100.00
52625;BME280;38519;52.540;13.410;2022-12-18T13:51:46;102681.47;;;-4.71;100.00
52625;BME280;38519;52.540;13.410;2022-12-18T13:56:48;102686.94;;;-4.95;100.00
52625;BME280;38519;52.540;13.410;2022-12-18T13:59:23;102686.53;;;-5.07;100.00
52625;BME280;38519;52.540;13.410;2022-12-18T14:01:53;102699.09;;;-5.03;100.00
52625;BME280;38519;52.540;13.410;2022-12-18T14:06:47;102676.50;;;-4.96;100.00
52625;BME280;38519;52.540;13.410;2022-12-18T14:09:15;102672.72;;;-5.04;100.00
52625;BME280;38519;52.540;13.410;2022-12-18T14:11:40;102672.97;;;-5.02;100.00
52625;BME280;38519;52.540;13.410;2022-12-18T14:14:13;102669.97;;;-5.00;100.00
52625;BME280;38519;52.540;13.410;2022-12-18T14:16:38;102671.34;;;-5.02;100.00
52625;BME280;38519;52.540;13.410;2022-12-18T14:19:08;102669.19;;;-4.89;100.00
52625;BME280;38519;52.540;13.410;2022-12-18T14:21:37;102674.81;;;-4.86;100.00
52625;BME280;38519;52.540;13.410;2022-12-18T14:24:12;102672.25;;;-4.86;100.00
52625;BME280;38519;52.540;13.410;2022-12-18T14:26:38;102666.97;;;-4.82;100.00
52625;BME280;38519;52.540;13.410;2022-12-18T14:32:04;102647.94;;;-4.84;100.00
52625;BME280;38519;52.540;13.410;2022-12-18T14:34:30;102637.88;;;-4.94;100.00
52625;BME280;38519;52.540;13.410;2022-12-18T14:36:55;102626.56;;;-4.90;100.00
52625;BME280;38519;52.540;13.410;2022-12-18T14:39:21;102631.09;;;-4.99;100.00
52625;BME280;38519;52.540;13.410;2022-12-18T14:41:48;102631.72;;;-4.84;100.00
52625;BME280;38519;52.540;13.410;2022-12-18T14:44:13;102621.31;;;-5.01;100.00
52625;BME280;38519;52.540;13.410;2022-12-18T14:46:39;102629.47;;;-4.98;100.00
52625;BME280;38519;52.540;13.410;2022-12-18T14:49:26;102627.78;;;-5.03;100.00
52625;BME280;38519;52.540;13.410;2022-12-18T14:51:54;102628.63;;;-5.08;100.00
52625;BME280;38519;52.540;13.410;2022-12-18T14:54:20;102620.53;;;-5.06;100.00